sensor_id;sensor_type;location;lat;lon;timestamp;pressure;altitude;pressure_sealevel;temperature;humidity
6835;BME280;3455;42.150;24.734;2023-02-17T00:01:16;65926.06;;;5.92;56.23
6835;BME280;3455;42.150;24.734;2023-02-17T00:03:44;65905.53;;;5.96;55.85
6835;BME280;3455;42.150;24.734;2023-02-17T00:06:13;65901.19;;;5.65;56.52
6835;BME280;3455;42.150;24.734;2023-02-17T00:08:40;65885.41;;;5.60;56.64
6835;BME280;3455;42.150;24.734;2023-02-17T00:11:06;65871.59;;;5.12;58.35
6835;BME280;3455;42.150;24.734;2023-02-17T00:13:33;65822.53;;;5.13;58.34
6835;BME280;3455;42.150;24.734;2023-02-17T00:16:06;65895.91;;;5.56;57.59
6835;BME280;3455;42.150;24.734;2023-02-17T00:18:33;65888.28;;;5.44;57.82
6835;BME280;3455;42.150;24.734;2023-02-17T00:21:00;65872.91;;;5.35;57.67
6835;BME280;3455;42.150;24.734;2023-02-17T00:23:26;65907.91;;;5.31;58.13
6835;BME280;3455;42.150;24.734;2023-02-17T00:25:53;65868.88;;;5.14;58.30
6835;BME280;3455;42.150;24.734;2023-02-17T00:28:20;65848.94;;;5.00;58.97
6835;BME280;3455;42.150;24.734;2023-02-17T00:30:46;65829.28;;;4.96;58.28
6835;BME280;3455;42.150;24.734;2023-02-17T00:33:14;65893.31;;;5.44;57.76
6835;BME280;3455;42.150;24.734;2023-02-17T00:35:41;65853.81;;;5.14;57.87
6835;BME280;3455;42.150;24.734;2023-02-17T00:38:08;65903.41;;;4.95;58.74
6835;BME280;3455;42.150;24.734;2023-02-17T00:40:34;65820.22;;;4.75;59.24
6835;BME280;3455;42.150;24.734;2023-02-17T00:43:01;65841.47;;;4.94;58.35
6835;BME280;3455;42.150;24.734;2023-02-17T00:45:28;65795.09;;;4.39;60.03
6835;BME280;3455;42.150;24.734;2023-02-17T00:47:54;65801.00;;;4.66;59.75
6835;BME280;3455;42.150;24.734;2023-02-17T00:50:23;65830.06;;;4.77;59.64
6835;BME280;3455;42.150;24.734;2023-02-17T00:52:49;65832.13;;;4.81;59.32
6835;BME280;3455;42.150;24.734;2023-02-17T00:55:16;65827.50;;;5.01;58.46
6835;BME280;3455;42.150;24.734;2023-02-17T00:57:43;65859.56;;;5.19;58.14
6835;BME280;3455;42.150;24.734;2023-02-17T01:00:10;65884.25;;;5.23;58.36
6835;BME280;3455;42.150;24.734;2023-02-17T01:02:37;65874.91;;;5.28;57.83
6835;BME280;3455;42.150;24.734;2023-02-17T01:05:04;65871.53;;;5.36;57.82
6835;BME280;3455;42.150;24.734;2023-02-17T01:07:33;65866.59;;;5.30;57.72
6835;BME280;3455;42.150;24.734;2023-02-17T01:10:02;65830.69;;;5.06;58.52
6835;BME280;3455;42.150;24.734;2023-02-17T01:12:29;65863.97;;;4.82;59.30
6835;BME280;3455;42.150;24.734;2023-02-17T01:14:56;65806.13;;;4.96;59.58
6835;BME280;3455;42.150;24.734;2023-02-17T01:17:22;65854.81;;;4.92;59.64
6835;BME280;3455;42.150;24.734;2023-02-17T01:19:49;65848.03;;;4.73;59.84
6835;BME280;3455;42.150;24.734;2023-02-17T01:22:16;65832.69;;;4.81;59.43
6835;BME280;3455;42.150;24.734;2023-02-17T01:24:44;65868.09;;;4.97;59.66
6835;BME280;3455;42.150;24.734;2023-02-17T01:27:11;65821.22;;;4.89;59.71
6835;BME280;3455;42.150;24.734;2023-02-17T01:29:37;65823.44;;;4.80;60.35
6835;BME280;3455;42.150;24.734;2023-02-17T01:32:04;65849.06;;;4.87;60.25
6835;BME280;3455;42.150;24.734;2023-02-17T01:34:31;65822.97;;;4.91;59.54
6835;BME280;3455;42.150;24.734;2023-02-17T01:36:57;65859.84;;;5.10;59.40
6835;BME280;3455;42.150;24.734;2023-02-17T01:39:24;65827.28;;;5.03;58.70
6835;BME280;3455;42.150;24.734;2023-02-17T01:41:52;65860.00;;;5.15;59.14
6835;BME280;3455;42.150;24.734;2023-02-17T01:44:20;65831.28;;;4.89;59.98
6835;BME280;3455;42.150;24.734;2023-02-17T01:46:48;65808.47;;;4.73;61.18
6835;BME280;3455;42.150;24.734;2023-02-17T01:49:26;65820.22;;;4.75;61.26
6835;BME280;3455;42.150;24.734;2023-02-17T01:52:01;65762.00;;;4.32;62.74
6835;BME280;3455;42.150;24.734;2023-02-17T01:54:33;65836.56;;;4.62;61.53
6835;BME280;3455;42.150;24.734;2023-02-17T01:57:02;65829.09;;;4.74;61.12
6835;BME280;3455;42.150;24.734;2023-02-17T01:59:30;65820.06;;;4.70;60.91
6835;BME280;3455;42.150;24.734;2023-02-17T02:01:59;65836.19;;;4.60;61.43
6835;BME280;3455;42.150;24.734;2023-02-17T02:04:29;65849.47;;;4.83;60.93
6835;BME280;3455;42.150;24.734;2023-02-17T02:06:57;65847.63;;;4.77;60.78
6835;BME280;3455;42.150;24.734;2023-02-17T02:09:27;65832.22;;;4.92;60.56
6835;BME280;3455;42.150;24.734;2023-02-17T02:11:55;65842.88;;;4.68;60.49
6835;BME280;3455;42.150;24.734;2023-02-17T02:14:25;65788.50;;;4.42;61.94
6835;BME280;3455;42.150;24.734;2023-02-17T02:16:58;65783.06;;;4.46;61.71
6835;BME280;3455;42.150;24.734;2023-02-17T02:20:02;65853.91;;;4.64;61.41
6835;BME280;3455;42.150;24.734;2023-02-17T02:22:55;65841.66;;;4.74;61.02
6835;BME280;3455;42.150;24.734;2023-02-17T02:25:48;65844.72;;;4.74;60.76
6835;BME280;3455;42.150;24.734;2023-02-17T02:28:27;65852.16;;;4.63;61.04
6835;BME280;3455;42.150;24.734;2023-02-17T02:31:13;65805.56;;;4.53;61.63
6835;BME280;3455;42.150;24.734;2023-02-17T02:33:49;65807.88;;;4.55;61.46
6835;BME280;3455;42.150;24.734;2023-02-17T02:36:20;65807.00;;;4.45;61.52
6835;BME280;3455;42.150;24.734;2023-02-17T02:38:56;65812.31;;;4.54;61.12
6835;BME280;3455;42.150;24.734;2023-02-17T02:41:28;65809.28;;;4.47;61.04
6835;BME280;3455;42.150;24.734;2023-02-17T02:43:56;65812.97;;;4.23;61.54
6835;BME280;3455;42.150;24.734;2023-02-17T02:46:23;65806.28;;;4.40;61.14
6835;BME280;3455;42.150;24.734;2023-02-17T02:48:51;65742.38;;;4.03;62.07
6835;BME280;3455;42.150;24.734;2023-02-17T02:51:29;65778.47;;;4.42;61.10
6835;BME280;3455;42.150;24.734;2023-02-17T02:54:17;65747.16;;;3.87;63.20
6835;BME280;3455;42.150;24.734;2023-02-17T02:57:01;65726.25;;;3.77;62.94
6835;BME280;3455;42.150;24.734;2023-02-17T02:59:40;65756.19;;;3.90;63.06
6835;BME280;3455;42.150;24.734;2023-02-17T03:02:15;65703.00;;;3.65;63.26
6835;BME280;3455;42.150;24.734;2023-02-17T03:04:49;65692.81;;;3.43;64.68
6835;BME280;3455;42.150;24.734;2023-02-17T03:07:23;65682.53;;;3.51;65.08
6835;BME280;3455;42.150;24.734;2023-02-17T03:09:52;65727.59;;;3.51;64.74
6835;BME280;3455;42.150;24.734;2023-02-17T03:12:21;65691.41;;;3.50;64.25
6835;BME280;3455;42.150;24.734;2023-02-17T03:14:49;65727.34;;;3.60;64.93
6835;BME280;3455;42.150;24.734;2023-02-17T03:17:17;65710.47;;;3.72;63.60
6835;BME280;3455;42.150;24.734;2023-02-17T03:19:43;65718.09;;;3.83;63.26
6835;BME280;3455;42.150;24.734;2023-02-17T03:22:16;65728.66;;;3.66;64.12
6835;BME280;3455;42.150;24.734;2023-02-17T03:24:44;65710.91;;;3.68;64.13
6835;BME280;3455;42.150;24.734;2023-02-17T03:27:11;65678.25;;;3.57;64.08
6835;BME280;3455;42.150;24.734;2023-02-17T03:29:38;65760.03;;;3.89;63.11
6835;BME280;3455;42.150;24.734;2023-02-17T03:32:05;65725.31;;;3.49;64.36
6835;BME280;3455;42.150;24.734;2023-02-17T03:34:32;65699.69;;;3.49;63.93
6835;BME280;3455;42.150;24.734;2023-02-17T03:36:59;65722.59;;;3.51;64.75
6835;BME280;3455;42.150;24.734;2023-02-17T03:39:27;65739.44;;;3.89;64.45
6835;BME280;3455;42.150;24.734;2023-02-17T03:41:54;65775.75;;;3.77;63.81
6835;BME280;3455;42.150;24.734;2023-02-17T03:44:21;65717.66;;;3.87;63.39
6835;BME280;3455;42.150;24.734;2023-02-17T03:46:52;65658.88;;;3.26;64.81
6835;BME280;3455;42.150;24.734;2023-02-17T03:49:19;65679.41;;;3.08;64.68
6835;BME280;3455;42.150;24.734;2023-02-17T03:51:46;65691.44;;;3.26;64.54
6835;BME280;3455;42.150;24.734;2023-02-17T03:54:13;65599.34;;;2.41;67.36
6835;BME280;3455;42.150;24.734;2023-02-17T03:56:41;65661.06;;;3.17;65.36
6835;BME280;3455;42.150;24.734;2023-02-17T03:59:07;65654.81;;;3.29;64.40
6835;BME280;3455;42.150;24.734;2023-02-17T04:01:34;65736.63;;;3.55;62.93
6835;BME280;3455;42.150;24.734;2023-02-17T04:04:01;65723.44;;;3.43;64.15
6835;BME280;3455;42.150;24.734;2023-02-17T04:06:28;65717.59;;;3.27;64.56
6835;BME280;3455;42.150;24.734;2023-02-17T04:08:55;65671.69;;;3.10;64.40
6835;BME280;3455;42.150;24.734;2023-02-17T04:11:22;65685.06;;;3.27;63.86
6835;BME280;3455;42.150;24.734;2023-02-17T04:13:50;65648.97;;;3.12;64.08
6835;BME280;3455;42.150;24.734;2023-02-17T04:16:17;65686.31;;;3.15;64.94
6835;BME280;3455;42.150;24.734;2023-02-17T04:18:43;65619.94;;;2.60;65.00
6835;BME280;3455;42.150;24.734;2023-02-17T04:21:10;65673.59;;;3.17;64.30
6835;BME280;3455;42.150;24.734;2023-02-17T04:23:37;65697.53;;;3.34;62.90
6835;BME280;3455;42.150;24.734;2023-02-17T04:26:05;65653.94;;;2.95;63.24
6835;BME280;3455;42.150;24.734;2023-02-17T04:28:32;65702.38;;;3.29;62.52
6835;BME280;3455;42.150;24.734;2023-02-17T04:31:00;65747.22;;;3.56;61.91
6835;BME280;3455;42.150;24.734;2023-02-17T04:33:27;65704.44;;;3.33;62.67
6835;BME280;3455;42.150;24.734;2023-02-17T04:35:54;65749.00;;;3.75;61.40
6835;BME280;3455;42.150;24.734;2023-02-17T04:38:24;65731.16;;;3.41;61.96
6835;BME280;3455;42.150;24.734;2023-02-17T04:40:52;65700.88;;;3.68;61.58
6835;BME280;3455;42.150;24.734;2023-02-17T04:43:19;65665.50;;;3.59;61.17
6835;BME280;3455;42.150;24.734;2023-02-17T04:45:46;65727.78;;;3.56;61.02
6835;BME280;3455;42.150;24.734;2023-02-17T04:48:14;65651.75;;;3.04;63.59
6835;BME280;3455;42.150;24.734;2023-02-17T04:50:41;65662.53;;;3.02;63.57
6835;BME280;3455;42.150;24.734;2023-02-17T04:53:07;65703.03;;;3.16;63.16
6835;BME280;3455;42.150;24.734;2023-02-17T04:55:34;65674.28;;;3.46;61.73
6835;BME280;3455;42.150;24.734;2023-02-17T04:58:01;65715.63;;;3.34;62.84
6835;BME280;3455;42.150;24.734;2023-02-17T05:00:28;65705.66;;;3.27;63.10
6835;BME280;3455;42.150;24.734;2023-02-17T05:02:55;65671.03;;;2.74;64.06
6835;BME280;3455;42.150;24.734;2023-02-17T05:05:23;65695.81;;;3.07;63.65
6835;BME280;3455;42.150;24.734;2023-02-17T05:07:50;65707.44;;;3.47;62.93
6835;BME280;3455;42.150;24.734;2023-02-17T05:10:17;65683.91;;;3.26;62.57
6835;BME280;3455;42.150;24.734;2023-02-17T05:12:44;65662.75;;;3.00;63.66
6835;BME280;3455;42.150;24.734;2023-02-17T05:15:11;65675.91;;;3.37;61.96
6835;BME280;3455;42.150;24.734;2023-02-17T05:17:37;65703.97;;;3.44;61.98
6835;BME280;3455;42.150;24.734;2023-02-17T05:20:05;65701.94;;;3.33;61.45
6835;BME280;3455;42.150;24.734;2023-02-17T05:22:34;65747.84;;;3.74;61.38
6835;BME280;3455;42.150;24.734;2023-02-17T05:25:01;65765.47;;;3.85;60.70
6835;BME280;3455;42.150;24.734;2023-02-17T05:27:28;65649.16;;;3.35;61.55
6835;BME280;3455;42.150;24.734;2023-02-17T05:29:54;65740.28;;;3.99;60.73
6835;BME280;3455;42.150;24.734;2023-02-17T05:32:22;65747.06;;;4.18;60.20
6835;BME280;3455;42.150;24.734;2023-02-17T05:34:48;65819.75;;;4.43;59.77
6835;BME280;3455;42.150;24.734;2023-02-17T05:37:15;65857.16;;;4.87;58.50
6835;BME280;3455;42.150;24.734;2023-02-17T05:39:43;65850.78;;;4.88;58.05
6835;BME280;3455;42.150;24.734;2023-02-17T05:42:10;65823.97;;;4.87;58.56
6835;BME280;3455;42.150;24.734;2023-02-17T05:44:37;65861.19;;;4.91;57.62
6835;BME280;3455;42.150;24.734;2023-02-17T05:47:04;65881.50;;;5.25;57.56
6835;BME280;3455;42.150;24.734;2023-02-17T05:49:30;65997.25;;;5.47;56.41
6835;BME280;3455;42.150;24.734;2023-02-17T05:51:57;65913.56;;;5.67;56.72
6835;BME280;3455;42.150;24.734;2023-02-17T05:54:24;65921.59;;;5.74;56.22
6835;BME280;3455;42.150;24.734;2023-02-17T05:56:52;65948.34;;;6.07;55.57
6835;BME280;3455;42.150;24.734;2023-02-17T05:59:19;65935.09;;;5.77;55.28
6835;BME280;3455;42.150;24.734;2023-02-17T06:01:45;65940.25;;;5.82;55.26
6835;BME280;3455;42.150;24.734;2023-02-17T06:04:12;65947.88;;;5.75;55.77
6835;BME280;3455;42.150;24.734;2023-02-17T06:06:39;65975.34;;;6.13;54.46
6835;BME280;3455;42.150;24.734;2023-02-17T06:09:05;65978.59;;;6.18;54.26
6835;BME280;3455;42.150;24.734;2023-02-17T06:11:32;65967.44;;;6.29;54.08
6835;BME280;3455;42.150;24.734;2023-02-17T06:14:00;65994.47;;;6.35;54.53
6835;BME280;3455;42.150;24.734;2023-02-17T06:16:27;66008.25;;;6.47;53.36
6835;BME280;3455;42.150;24.734;2023-02-17T06:18:53;65999.47;;;6.53;53.71
6835;BME280;3455;42.150;24.734;2023-02-17T06:21:20;66014.00;;;6.52;52.93
6835;BME280;3455;42.150;24.734;2023-02-17T06:23:47;66057.28;;;6.95;52.58
6835;BME280;3455;42.150;24.734;2023-02-17T06:26:14;66016.31;;;6.54;51.58
6835;BME280;3455;42.150;24.734;2023-02-17T06:28:41;66056.28;;;6.81;52.54
6835;BME280;3455;42.150;24.734;2023-02-17T06:31:09;66102.66;;;7.43;51.34
6835;BME280;3455;42.150;24.734;2023-02-17T06:33:36;66136.97;;;7.75;51.09
6835;BME280;3455;42.150;24.734;2023-02-17T06:36:03;66138.81;;;7.82;50.48
6835;BME280;3455;42.150;24.734;2023-02-17T06:38:30;66183.31;;;8.26;49.91
6835;BME280;3455;42.150;24.734;2023-02-17T06:40:57;66233.91;;;8.77;48.26
6835;BME280;3455;42.150;24.734;2023-02-17T06:43:23;66284.56;;;9.11;47.82
6835;BME280;3455;42.150;24.734;2023-02-17T06:45:50;66263.31;;;9.15;47.19
6835;BME280;3455;42.150;24.734;2023-02-17T06:48:18;66406.16;;;10.67;44.69
6835;BME280;3455;42.150;24.734;2023-02-17T06:50:45;66440.44;;;10.55;43.65
6835;BME280;3455;42.150;24.734;2023-02-17T06:53:11;66446.72;;;10.78;42.65
6835;BME280;3455;42.150;24.734;2023-02-17T06:55:38;66393.22;;;10.58;42.66
6835;BME280;3455;42.150;24.734;2023-02-17T06:58:05;66499.72;;;11.43;42.17
6835;BME280;3455;42.150;24.734;2023-02-17T07:00:32;66503.56;;;11.60;40.75
6835;BME280;3455;42.150;24.734;2023-02-17T07:02:59;66494.41;;;11.34;40.71
6835;BME280;3455;42.150;24.734;2023-02-17T07:05:27;66428.53;;;10.94;42.37
6835;BME280;3455;42.150;24.734;2023-02-17T07:07:56;66617.13;;;11.48;41.31
6835;BME280;3455;42.150;24.734;2023-02-17T07:10:23;66669.81;;;13.15;38.57
6835;BME280;3455;42.150;24.734;2023-02-17T07:12:50;66772.63;;;14.01;36.40
6835;BME280;3455;42.150;24.734;2023-02-17T07:15:17;66844.56;;;14.97;34.52
6835;BME280;3455;42.150;24.734;2023-02-17T07:17:43;66823.91;;;14.99;33.65
6835;BME280;3455;42.150;24.734;2023-02-17T07:20:11;66891.25;;;15.18;33.50
6835;BME280;3455;42.150;24.734;2023-02-17T07:22:39;66862.28;;;15.15;33.56
6835;BME280;3455;42.150;24.734;2023-02-17T07:25:06;66956.94;;;15.85;32.39
6835;BME280;3455;42.150;24.734;2023-02-17T07:27:34;67002.06;;;16.37;30.65
6835;BME280;3455;42.150;24.734;2023-02-17T07:30:00;66865.84;;;15.23;32.13
6835;BME280;3455;42.150;24.734;2023-02-17T07:32:27;66882.38;;;15.01;32.95
6835;BME280;3455;42.150;24.734;2023-02-17T07:34:54;66915.28;;;15.26;33.09
6835;BME280;3455;42.150;24.734;2023-02-17T07:37:21;66899.78;;;15.44;32.38
6835;BME280;3455;42.150;24.734;2023-02-17T07:39:49;66950.47;;;15.75;31.39
6835;BME280;3455;42.150;24.734;2023-02-17T07:42:16;66902.94;;;15.33;32.20
6835;BME280;3455;42.150;24.734;2023-02-17T07:44:43;66913.50;;;15.85;32.15
6835;BME280;3455;42.150;24.734;2023-02-17T07:47:10;66950.19;;;16.15;30.63
6835;BME280;3455;42.150;24.734;2023-02-17T07:49:37;66998.66;;;16.22;30.16
6835;BME280;3455;42.150;24.734;2023-02-17T07:52:04;67018.84;;;16.35;29.45
6835;BME280;3455;42.150;24.734;2023-02-17T07:54:31;66965.94;;;16.07;30.35
6835;BME280;3455;42.150;24.734;2023-02-17T07:56:59;66921.34;;;15.94;30.22
6835;BME280;3455;42.150;24.734;2023-02-17T07:59:25;66913.78;;;15.61;30.43
6835;BME280;3455;42.150;24.734;2023-02-17T08:01:52;66867.94;;;15.15;31.55
6835;BME280;3455;42.150;24.734;2023-02-17T08:04:19;66857.94;;;15.25;32.07
6835;BME280;3455;42.150;24.734;2023-02-17T08:06:45;66982.81;;;16.26;30.47
6835;BME280;3455;42.150;24.734;2023-02-17T08:09:12;67157.06;;;17.67;28.91
6835;BME280;3455;42.150;24.734;2023-02-17T08:11:56;66973.72;;;16.00;30.76
6835;BME280;3455;42.150;24.734;2023-02-17T08:14:41;67080.31;;;16.90;29.58
6835;BME280;3455;42.150;24.734;2023-02-17T08:17:08;67258.38;;;18.43;27.50
6835;BME280;3455;42.150;24.734;2023-02-17T08:19:35;67447.31;;;19.55;26.50
6835;BME280;3455;42.150;24.734;2023-02-17T08:22:02;67354.09;;;19.50;26.76
6835;BME280;3455;42.150;24.734;2023-02-17T08:24:29;67387.19;;;19.63;26.11
6835;BME280;3455;42.150;24.734;2023-02-17T08:26:56;67407.00;;;19.97;26.10
6835;BME280;3455;42.150;24.734;2023-02-17T08:29:22;67369.78;;;19.64;25.96
6835;BME280;3455;42.150;24.734;2023-02-17T08:31:52;67357.84;;;19.67;26.37
6835;BME280;3455;42.150;24.734;2023-02-17T08:34:19;67428.84;;;20.34;26.09
6835;BME280;3455;42.150;24.734;2023-02-17T08:36:45;67450.78;;;20.29;25.47
6835;BME280;3455;42.150;24.734;2023-02-17T08:39:15;67412.72;;;19.97;26.13
6835;BME280;3455;42.150;24.734;2023-02-17T08:41:43;67536.44;;;20.97;25.33
6835;BME280;3455;42.150;24.734;2023-02-17T08:44:12;67495.78;;;20.66;25.63
6835;BME280;3455;42.150;24.734;2023-02-17T08:46:39;67531.78;;;21.25;25.11
6835;BME280;3455;42.150;24.734;2023-02-17T08:49:08;67799.16;;;22.92;23.90
6835;BME280;3455;42.150;24.734;2023-02-17T08:51:36;67669.34;;;22.24;24.22
6835;BME280;3455;42.150;24.734;2023-02-17T08:54:03;67747.56;;;23.02;22.95
6835;BME280;3455;42.150;24.734;2023-02-17T08:56:31;67755.69;;;22.88;23.11
6835;BME280;3455;42.150;24.734;2023-02-17T08:58:58;67843.38;;;23.43;22.57
6835;BME280;3455;42.150;24.734;2023-02-17T09:01:24;67770.47;;;22.94;22.92
6835;BME280;3455;42.150;24.734;2023-02-17T09:03:53;67927.31;;;24.28;21.66
6835;BME280;3455;42.150;24.734;2023-02-17T09:06:22;68037.00;;;24.99;21.66
6835;BME280;3455;42.150;24.734;2023-02-17T09:08:49;68152.63;;;25.71;20.99
6835;BME280;3455;42.150;24.734;2023-02-17T09:11:16;68130.59;;;25.66;20.93
6835;BME280;3455;42.150;24.734;2023-02-17T09:13:45;68074.38;;;25.48;20.93
6835;BME280;3455;42.150;24.734;2023-02-17T09:16:11;67886.56;;;23.81;21.96
6835;BME280;3455;42.150;24.734;2023-02-17T09:18:38;67791.97;;;23.09;23.22
6835;BME280;3455;42.150;24.734;2023-02-17T09:21:06;67767.94;;;23.15;23.76
6835;BME280;3455;42.150;24.734;2023-02-17T09:23:35;67741.28;;;22.85;23.57
6835;BME280;3455;42.150;24.734;2023-02-17T09:26:04;67710.97;;;22.58;23.63
6835;BME280;3455;42.150;24.734;2023-02-17T09:28:32;67919.44;;;24.39;20.75
6835;BME280;3455;42.150;24.734;2023-02-17T09:31:07;68225.94;;;26.49;17.51
6835;BME280;3455;42.150;24.734;2023-02-17T09:33:34;68225.38;;;26.49;17.45
6835;BME280;3455;42.150;24.734;2023-02-17T09:36:00;68171.22;;;26.19;16.43
6835;BME280;3455;42.150;24.734;2023-02-17T09:38:27;68319.16;;;26.99;16.35
6835;BME280;3455;42.150;24.734;2023-02-17T09:41:01;68401.19;;;27.71;15.30
6835;BME280;3455;42.150;24.734;2023-02-17T09:43:32;68244.88;;;26.79;15.52
6835;BME280;3455;42.150;24.734;2023-02-17T09:46:03;68335.81;;;26.91;15.36
6835;BME280;3455;42.150;24.734;2023-02-17T09:48:32;68421.38;;;27.86;14.89
6835;BME280;3455;42.150;24.734;2023-02-17T09:51:03;68201.69;;;26.51;15.64
6835;BME280;3455;42.150;24.734;2023-02-17T09:53:36;68231.19;;;26.54;16.25
6835;BME280;3455;42.150;24.734;2023-02-17T09:56:08;68383.31;;;27.78;15.15
6835;BME280;3455;42.150;24.734;2023-02-17T09:58:39;68650.03;;;29.52;14.29
6835;BME280;3455;42.150;24.734;2023-02-17T10:01:09;68653.91;;;29.37;14.00
6835;BME280;3455;42.150;24.734;2023-02-17T10:03:42;68766.22;;;29.99;13.88
6835;BME280;3455;42.150;24.734;2023-02-17T10:06:14;68727.78;;;29.93;13.57
6835;BME280;3455;42.150;24.734;2023-02-17T10:08:45;68775.53;;;30.43;13.63
6835;BME280;3455;42.150;24.734;2023-02-17T10:11:20;68796.69;;;30.62;12.91
6835;BME280;3455;42.150;24.734;2023-02-17T10:13:50;68746.53;;;30.04;13.42
6835;BME280;3455;42.150;24.734;2023-02-17T10:16:22;68989.06;;;30.52;13.33
6835;BME280;3455;42.150;24.734;2023-02-17T10:18:54;68988.59;;;31.42;13.00
6835;BME280;3455;42.150;24.734;2023-02-17T10:21:26;69018.31;;;31.66;12.94
6835;BME280;3455;42.150;24.734;2023-02-17T10:23:54;69181.28;;;32.55;11.59
6835;BME280;3455;42.150;24.734;2023-02-17T10:26:28;69225.75;;;32.87;11.81
6835;BME280;3455;42.150;24.734;2023-02-17T10:29:04;69257.91;;;32.92;11.20
6835;BME280;3455;42.150;24.734;2023-02-17T10:31:41;68958.22;;;31.34;12.63
6835;BME280;3455;42.150;24.734;2023-02-17T10:34:12;69108.44;;;32.15;12.22
6835;BME280;3455;42.150;24.734;2023-02-17T10:36:49;69265.44;;;33.10;12.04
6835;BME280;3455;42.150;24.734;2023-02-17T10:39:32;69441.59;;;34.18;11.45
6835;BME280;3455;42.150;24.734;2023-02-17T10:42:03;69352.31;;;33.86;11.30
6835;BME280;3455;42.150;24.734;2023-02-17T10:44:33;69210.78;;;32.81;11.74
6835;BME280;3455;42.150;24.734;2023-02-17T10:47:02;69512.66;;;34.38;10.69
6835;BME280;3455;42.150;24.734;2023-02-17T10:49:32;69483.56;;;34.08;11.08
6835;BME280;3455;42.150;24.734;2023-02-17T10:52:00;69400.94;;;33.96;10.99
6835;BME280;3455;42.150;24.734;2023-02-17T10:54:31;69415.44;;;33.86;11.14
6835;BME280;3455;42.150;24.734;2023-02-17T10:57:04;69428.22;;;34.04;10.75
6835;BME280;3455;42.150;24.734;2023-02-17T10:59:38;69298.97;;;33.51;10.54
6835;BME280;3455;42.150;24.734;2023-02-17T11:02:15;68837.44;;;30.65;11.71
6835;BME280;3455;42.150;24.734;2023-02-17T11:04:44;68689.56;;;29.80;12.82
6835;BME280;3455;42.150;24.734;2023-02-17T11:07:13;69192.94;;;32.56;11.45
6835;BME280;3455;42.150;24.734;2023-02-17T11:09:46;69110.84;;;32.22;12.03
6835;BME280;3455;42.150;24.734;2023-02-17T11:12:26;69210.03;;;32.67;10.68
6835;BME280;3455;42.150;24.734;2023-02-17T11:14:55;69184.63;;;32.90;10.81
6835;BME280;3455;42.150;24.734;2023-02-17T11:17:26;69157.91;;;32.53;11.41
6835;BME280;3455;42.150;24.734;2023-02-17T11:19:56;69358.13;;;33.61;10.82
6835;BME280;3455;42.150;24.734;2023-02-17T11:22:32;69437.44;;;34.14;10.63
6835;BME280;3455;42.150;24.734;2023-02-17T11:25:00;69252.00;;;33.08;10.72
6835;BME280;3455;42.150;24.734;2023-02-17T11:27:29;69266.25;;;33.04;11.00
6835;BME280;3455;42.150;24.734;2023-02-17T11:30:06;69319.13;;;33.27;10.59
6835;BME280;3455;42.150;24.734;2023-02-17T11:32:33;69349.94;;;33.38;10.97
6835;BME280;3455;42.150;24.734;2023-02-17T11:35:00;69289.03;;;33.26;9.77
6835;BME280;3455;42.150;24.734;2023-02-17T11:37:31;69155.44;;;32.42;10.03
6835;BME280;3455;42.150;24.734;2023-02-17T11:39:59;69244.38;;;33.06;10.09
6835;BME280;3455;42.150;24.734;2023-02-17T11:42:27;69520.56;;;34.38;9.81
6835;BME280;3455;42.150;24.734;2023-02-17T11:44:57;69509.75;;;34.40;9.77
6835;BME280;3455;42.150;24.734;2023-02-17T11:47:32;69695.09;;;35.51;9.18
6835;BME280;3455;42.150;24.734;2023-02-17T11:50:21;69428.75;;;34.20;9.36
6835;BME280;3455;42.150;24.734;2023-02-17T11:53:02;69244.50;;;33.15;9.48
6835;BME280;3455;42.150;24.734;2023-02-17T11:55:42;69406.09;;;33.87;8.89
6835;BME280;3455;42.150;24.734;2023-02-17T11:58:23;69539.63;;;34.89;9.13
6835;BME280;3455;42.150;24.734;2023-02-17T12:01:00;69711.88;;;35.58;8.80
6835;BME280;3455;42.150;24.734;2023-02-17T12:03:51;69755.88;;;35.80;8.67
6835;BME280;3455;42.150;24.734;2023-02-17T12:06:21;69443.97;;;34.20;9.58
6835;BME280;3455;42.150;24.734;2023-02-17T12:09:01;69390.50;;;33.55;9.62
6835;BME280;3455;42.150;24.734;2023-02-17T12:11:33;69362.06;;;33.71;9.52
6835;BME280;3455;42.150;24.734;2023-02-17T12:14:13;69021.59;;;31.71;9.62
6835;BME280;3455;42.150;24.734;2023-02-17T12:16:51;69075.88;;;31.77;10.58
6835;BME280;3455;42.150;24.734;2023-02-17T12:19:36;69253.00;;;32.95;9.48
6835;BME280;3455;42.150;24.734;2023-02-17T12:22:15;69281.50;;;33.08;10.04
6835;BME280;3455;42.150;24.734;2023-02-17T12:24:53;69543.59;;;34.79;9.23
6835;BME280;3455;42.150;24.734;2023-02-17T12:27:32;69360.88;;;33.70;9.58
6835;BME280;3455;42.150;24.734;2023-02-17T12:30:24;69468.34;;;34.55;10.16
6835;BME280;3455;42.150;24.734;2023-02-17T12:33:09;69643.03;;;35.15;8.69
6835;BME280;3455;42.150;24.734;2023-02-17T12:35:44;69182.59;;;32.66;9.57
6835;BME280;3455;42.150;24.734;2023-02-17T12:38:17;69545.78;;;34.67;8.73
6835;BME280;3455;42.150;24.734;2023-02-17T12:40:49;69539.31;;;34.66;8.59
6835;BME280;3455;42.150;24.734;2023-02-17T12:43:23;69410.00;;;34.18;8.92
6835;BME280;3455;42.150;24.734;2023-02-17T12:45:53;69214.44;;;32.93;9.72
6835;BME280;3455;42.150;24.734;2023-02-17T12:48:25;69047.94;;;31.80;10.73
6835;BME280;3455;42.150;24.734;2023-02-17T12:50:59;69225.66;;;32.78;9.69
6835;BME280;3455;42.150;24.734;2023-02-17T12:53:42;69043.47;;;31.95;10.36
6835;BME280;3455;42.150;24.734;2023-02-17T12:56:37;69057.88;;;32.05;9.96
6835;BME280;3455;42.150;24.734;2023-02-17T12:59:11;69258.44;;;33.09;9.60
6835;BME280;3455;42.150;24.734;2023-02-17T13:01:50;68643.81;;;29.65;10.98
6835;BME280;3455;42.150;24.734;2023-02-17T13:04:21;68610.16;;;29.22;11.12
6835;BME280;3455;42.150;24.734;2023-02-17T13:06:53;68655.59;;;29.34;11.06
6835;BME280;3455;42.150;24.734;2023-02-17T13:09:28;68772.88;;;30.18;10.77
6835;BME280;3455;42.150;24.734;2023-02-17T13:12:09;68841.88;;;30.72;10.59
6835;BME280;3455;42.150;24.734;2023-02-17T13:14:42;68738.25;;;29.93;10.97
6835;BME280;3455;42.150;24.734;2023-02-17T13:17:23;68870.78;;;30.81;10.92
6835;BME280;3455;42.150;24.734;2023-02-17T13:20:19;68912.75;;;31.31;11.17
6835;BME280;3455;42.150;24.734;2023-02-17T13:22:49;68906.09;;;31.12;10.81
6835;BME280;3455;42.150;24.734;2023-02-17T13:25:27;69006.19;;;31.74;10.79
6835;BME280;3455;42.150;24.734;2023-02-17T13:27:54;69157.72;;;32.39;10.44
6835;BME280;3455;42.150;24.734;2023-02-17T13:30:29;68762.34;;;30.14;11.34
6835;BME280;3455;42.150;24.734;2023-02-17T13:33:01;68712.09;;;29.93;11.68